Galesville, MD

1:21 PM EDT on September 23, 2014 (GMT -0400)
West River | Change Station
CLOSE
Current Station
Personal Weather Station
Location: Galesville, MD
Elevation: 15 ft
Nearby Weather Stations

Elev 15 ft 38.85 °N, 76.54 °W | Updated 4 minutes ago

Clear
Clear
61.6 °F
Feels Like 61.6 °F
N
5.0
Wind Variable Wind from East
Gusts 7.0 mph

Today
High -- | Low -- °F
--% Chance of Precip.
Yesterday
High -- | Low -- °F
Precip. -- in
6:54 AM 7:01 PM
Waning Crescent, 0% visible
Pressure 30.37 in
Visibility 10.0 miles
Clouds Clear
Dew Point 49 °F
Humidity 64%
Rainfall 0.00 in
Snow Depth Not available.
UV 8 out of 12
Pollen 3.90 out of 12
Air Quality Not available.
Flu Activity Not available.
METAR KNAK 231654Z AUTO 32005KT 10SM CLR 18/07 A3036 RMK AO2 SLP282 T01830072 $

More Conditions Fewer Conditions

Pressure 30.37 in
Visibility 10.0 miles
Clouds Clear
Dew Point 49 °F
Humidity 64%
Rainfall 0.00 in
Snow Depth Not available.
UV 8 out of 12
Pollen 3.90 out of 12
Air Quality Not available.
Flu Activity Not available.
METAR KNAK 231654Z AUTO 32005KT 10SM CLR 18/07 A3036 RMK AO2 SLP282 T01830072 $

More Conditions Fewer Conditions

10-Day Weather Forecast

Almanac

Astronomy

Sep. 23, 2014 Rise Set
Actual Time 6:54 AM EDT 7:01 PM EDT
Civil Twilight 6:28 AM EDT 7:28 PM EDT
Nautical Twilight 5:57 AM EDT 7:59 PM EDT
Astronomical Twilight 5:25 AM EDT 8:30 PM EDT
Moon 6:17 AM EDT 6:39 PM EDT
Length of Visible Light 12h 59m
Length of Day
12h 06m
Tomorrow will be 2m 30s shorter.
Waning Crescent, 0% of the Moon is Illuminated
Today
Waning Crescent
Sep 24
New
Oct 1
First Quarter
Oct 8
Full
Oct 15
Last Quarter

Today's Extremes

State Highs State Lows

Community

WunderPhotos

Upload Photos

1,755,756 photos uploaded!

WunderBlogs® & News

Nearby

Snow Depth

Station Depth Elevation
No new snow has been reported.

Earthquake Activity

City Distance Mag. Time & Date
No recent earthquake activity has been reported nearby.
Minimum magnitude displayed is 2.5.

Coastal Water Temperatures

Place Temperature
Cambridge, MD 71.1 °F
Tolchester Beach, MD 70.0 °F
Baltimore, MD 73.9 °F

Nearby Weather Stations